Darstellungsparameter: Aktuell verwendete Einstellungen:
Skalierung der Graphiken ... ?
xyx+y,   Skalierungsfaktor:      Skalierung: Modus: x, Faktor: 1
Darstellungszeitraum ... ?
Vom - - bis: - -   Zeitraum: 19.10.2020 - 21.10.2020
Min/Max/Avg-Anzeige ... ?
Zeige MMA aktuell
Zeige MMA Monat
Zeige MMA alles
Zeige --A aktuell
Zeige --A Monat
Zeige --A alles
Keine MMA-Anzeige
MMA:
Average (ber die Originaldaten)
MMA-Basis: 19.10.2020 - 21.10.2020
Quicknavigation für Darstellung... ?
Tage:      1T, 2T, 3T, 5T -1T -2T -3T -5T +1T +2T +3T +5T
Wochen: 1W, 2W, 3W -1W -2W -3W +1W +2W +3W
Monate: 1M, 3M, 6M -1M -3M -6M +1M +3M +6M
Jahre:    1J, 3J, 5J, 10J -1J -3J -5J -10J +1J +3J +5J +10J
Nutze für die Darstellung ... ?
Originaldaten oder Mittelwerte auf ...
Stundenbasis Tagesbasis Wochenbasis
Monatsbasis Jahresbasis      Datenbasis: Original-Daten
Darstellen als:
Statistik (Auto) Statistik J:M      Darstellung:
Zur Graphik,    zurück zur Übersicht aller Sensoren.
 
Tabellarische Datenbersicht: ?
 
Sensor: Nr:Datum:Temp:Abs-Feuchte:Windchill:Wind:
Aussen-T/F 1 19-10-2020 00:00:00 9.1 C 8.07 g/m*3 9.1 C 0 km/h
2 19-10-2020 00:05:00 9.1 C 8.07 g/m*3 9.1 C 0 km/h
3 19-10-2020 00:10:00 9 C 8.02 g/m*3 9 C 0 km/h
4 19-10-2020 00:15:00 8.9 C 7.97 g/m*3 8.9 C 0 km/h
5 19-10-2020 00:20:00 8.9 C 7.97 g/m*3 8.9 C 0 km/h
6 19-10-2020 00:25:00 8.9 C 7.97 g/m*3 8.9 C 0 km/h
7 19-10-2020 00:30:00 8.8 C 7.92 g/m*3 8.8 C 1.6 km/h
8 19-10-2020 00:35:00 8.8 C 7.92 g/m*3 8.8 C 0 km/h
9 19-10-2020 00:40:00 8.8 C 8.01 g/m*3 8.8 C 0 km/h
10 19-10-2020 00:45:00 8.8 C 8.01 g/m*3 8.8 C 0 km/h
11 19-10-2020 00:50:00 8.7 C 7.96 g/m*3 8.7 C 0 km/h
12 19-10-2020 00:55:00 8.7 C 7.96 g/m*3 8.7 C 0 km/h
13 19-10-2020 01:00:00 8.7 C 7.96 g/m*3 8.7 C 0 km/h
14 19-10-2020 01:05:00 8.7 C 7.96 g/m*3 8.7 C 0 km/h
15 19-10-2020 01:10:00 8.7 C 7.96 g/m*3 8.7 C 0 km/h
16 19-10-2020 01:15:00 8.6 C 7.91 g/m*3 8.6 C 0 km/h
17 19-10-2020 01:20:00 8.6 C 7.91 g/m*3 8.6 C 0 km/h
18 19-10-2020 01:25:00 8.6 C 7.99 g/m*3 8.6 C 1.6 km/h
19 19-10-2020 01:30:00 8.6 C 7.99 g/m*3 8.6 C 3.2 km/h
20 19-10-2020 01:35:00 8.7 C 8.04 g/m*3 8.7 C 3.2 km/h
21 19-10-2020 01:40:00 8.7 C 7.96 g/m*3 8.7 C 3.2 km/h
22 19-10-2020 01:45:00 8.7 C 7.96 g/m*3 8.7 C 0 km/h
23 19-10-2020 01:50:00 8.7 C 7.96 g/m*3 8.7 C 0 km/h
24 19-10-2020 01:55:00 8.7 C 7.96 g/m*3 8.7 C 0 km/h
25 19-10-2020 02:00:00 8.7 C 7.96 g/m*3 8.7 C 0 km/h
Sensor: Nr:Datum:Temp:Abs-Feuchte:Windchill:Wind:
Aussen-T/F 26 19-10-2020 02:05:00 8.7 C 7.96 g/m*3 8.7 C 0 km/h
27 19-10-2020 02:10:00 8.7 C 7.96 g/m*3 8.7 C 1.6 km/h
28 19-10-2020 02:15:00 8.7 C 7.96 g/m*3 8.7 C 3.2 km/h
29 19-10-2020 02:20:00 8.7 C 7.96 g/m*3 8.7 C 0 km/h
30 19-10-2020 02:25:00 8.7 C 7.96 g/m*3 8.7 C 0 km/h
31 19-10-2020 02:30:00 8.7 C 7.96 g/m*3 8.7 C 0 km/h
32 19-10-2020 02:35:00 8.7 C 7.96 g/m*3 8.7 C 0 km/h
33 19-10-2020 02:40:00 8.6 C 7.91 g/m*3 8.6 C 0 km/h
34 19-10-2020 02:45:00 8.6 C 7.99 g/m*3 8.6 C 0 km/h
35 19-10-2020 02:50:00 8.6 C 7.99 g/m*3 8.6 C 0 km/h
36 19-10-2020 02:55:00 8.5 C 7.94 g/m*3 8.5 C 0 km/h
37 19-10-2020 03:00:00 8.5 C 7.94 g/m*3 8.5 C 0 km/h
38 19-10-2020 03:05:00 8.4 C 7.89 g/m*3 8.4 C 0 km/h
39 19-10-2020 03:10:00 8.4 C 7.89 g/m*3 8.4 C 0 km/h
40 19-10-2020 03:15:00 8.4 C 7.89 g/m*3 8.4 C 0 km/h
41 19-10-2020 03:20:00 8.3 C 7.84 g/m*3 8.3 C 0 km/h
42 19-10-2020 03:25:00 8.3 C 7.84 g/m*3 8.3 C 0 km/h
43 19-10-2020 03:30:00 8.3 C 7.84 g/m*3 8.3 C 1.6 km/h
44 19-10-2020 03:35:00 8.3 C 7.84 g/m*3 8.3 C 1.6 km/h
45 19-10-2020 03:40:00 8.3 C 7.84 g/m*3 8.3 C 0 km/h
46 19-10-2020 03:45:00 8.3 C 7.84 g/m*3 8.3 C 0 km/h
47 19-10-2020 03:50:00 8.3 C 7.84 g/m*3 8.3 C 0 km/h
48 19-10-2020 03:55:00 8.3 C 7.84 g/m*3 8.3 C 0 km/h
49 19-10-2020 04:00:00 8.2 C 7.87 g/m*3 8.2 C 0 km/h
50 19-10-2020 04:05:00 8.2 C 7.87 g/m*3 8.2 C 0 km/h
Sensor: Nr:Datum:Temp:Abs-Feuchte:Windchill:Wind:
Aussen-T/F 51 19-10-2020 04:10:00 8.2 C 7.87 g/m*3 8.2 C 0 km/h
52 19-10-2020 04:15:00 8.2 C 7.87 g/m*3 8.2 C 0 km/h
53 19-10-2020 04:20:00 8.2 C 7.87 g/m*3 8.2 C 0 km/h
54 19-10-2020 04:25:00 8.2 C 7.87 g/m*3 8.2 C 0 km/h
55 19-10-2020 04:30:00 8.2 C 7.87 g/m*3 8.2 C 3.2 km/h
56 19-10-2020 04:35:00 8.2 C 7.87 g/m*3 8.2 C 4.8 km/h
57 19-10-2020 04:40:00 8.3 C 7.92 g/m*3 8.3 C 1.6 km/h
58 19-10-2020 04:45:00 8.3 C 7.92 g/m*3 8.3 C 0 km/h
59 19-10-2020 04:50:00 8.3 C 7.92 g/m*3 8.3 C 0 km/h
60 19-10-2020 04:55:00 8.3 C 7.92 g/m*3 8.3 C 1.6 km/h
61 19-10-2020 05:00:00 8.2 C 7.87 g/m*3 8.2 C 0 km/h
62 19-10-2020 05:05:00 8.2 C 7.87 g/m*3 8.2 C 0 km/h
63 19-10-2020 05:10:00 8.2 C 7.87 g/m*3 8.2 C 0 km/h
64 19-10-2020 05:15:00 8.2 C 7.87 g/m*3 8.2 C 0 km/h
65 19-10-2020 05:20:00 8.2 C 7.87 g/m*3 8.2 C 0 km/h
66 19-10-2020 05:25:00 8.2 C 7.87 g/m*3 8.2 C 3.2 km/h
67 19-10-2020 05:30:00 8.2 C 7.87 g/m*3 8.2 C 3.2 km/h
68 19-10-2020 05:35:00 8.2 C 7.87 g/m*3 8.2 C 3.2 km/h
69 19-10-2020 05:40:00 8.2 C 7.87 g/m*3 8.2 C 0 km/h
70 19-10-2020 05:45:00 8.2 C 7.87 g/m*3 8.2 C 0 km/h
71 19-10-2020 05:50:00 8.1 C 7.82 g/m*3 8.1 C 0 km/h
72 19-10-2020 05:55:00 8.1 C 7.82 g/m*3 8.1 C 0 km/h
73 19-10-2020 06:00:00 8 C 7.77 g/m*3 8 C 0 km/h
74 19-10-2020 06:05:00 7.9 C 7.72 g/m*3 7.9 C 1.6 km/h
75 19-10-2020 06:10:00 7.8 C 7.67 g/m*3 7.8 C 0 km/h
Sensor: Nr:Datum:Temp:Abs-Feuchte:Windchill:Wind:
Aussen-T/F 76 19-10-2020 06:15:00 7.8 C 7.67 g/m*3 7.8 C 0 km/h
77 19-10-2020 06:20:00 7.7 C 7.62 g/m*3 7.7 C 3.2 km/h
78 19-10-2020 06:25:00 7.7 C 7.62 g/m*3 7.7 C 3.2 km/h
79 19-10-2020 06:30:00 7.7 C 7.62 g/m*3 7.7 C 0 km/h
80 19-10-2020 06:35:00 7.6 C 7.57 g/m*3 7.6 C 0 km/h
81 19-10-2020 06:40:00 7.6 C 7.57 g/m*3 7.6 C 3.2 km/h
82 19-10-2020 06:45:00 7.6 C 7.57 g/m*3 7.6 C 3.2 km/h
83 19-10-2020 06:50:00 7.6 C 7.57 g/m*3 7.6 C 0 km/h
84 19-10-2020 06:55:00 7.5 C 7.52 g/m*3 7.5 C 0 km/h
85 19-10-2020 07:00:00 7.5 C 7.6 g/m*3 7.5 C 0 km/h
86 19-10-2020 07:05:00 7.4 C 7.48 g/m*3 7.4 C 0 km/h
87 19-10-2020 07:10:00 7.4 C 7.48 g/m*3 7.4 C 0 km/h
88 19-10-2020 07:15:00 7.4 C 7.48 g/m*3 7.4 C 0 km/h
89 19-10-2020 07:20:00 7.4 C 7.55 g/m*3 7.4 C 0 km/h
90 19-10-2020 07:25:00 7.4 C 7.55 g/m*3 7.4 C 0 km/h
91 19-10-2020 07:30:00 7.4 C 7.55 g/m*3 7.4 C 0 km/h
92 19-10-2020 07:35:00 7.4 C 7.55 g/m*3 7.4 C 0 km/h
93 19-10-2020 07:40:00 7.4 C 7.55 g/m*3 7.4 C 0 km/h
94 19-10-2020 07:45:00 7.4 C 7.55 g/m*3 7.4 C 0 km/h
95 19-10-2020 07:50:00 7.4 C 7.55 g/m*3 7.4 C 0 km/h
96 19-10-2020 07:55:00 7.4 C 7.55 g/m*3 7.4 C 0 km/h
97 19-10-2020 08:00:00 7.4 C 7.55 g/m*3 7.4 C 0 km/h
98 19-10-2020 08:05:00 7.3 C 7.51 g/m*3 7.3 C 0 km/h
99 19-10-2020 08:10:00 7.4 C 7.55 g/m*3 7.4 C 0 km/h
100 19-10-2020 08:15:00 7.4 C 7.55 g/m*3 7.4 C 0 km/h
Sensor: Nr:Datum:Temp:Abs-Feuchte:Windchill:Wind:
Aussen-T/F 101 19-10-2020 08:20:00 7.4 C 7.55 g/m*3 7.4 C 0 km/h
102 19-10-2020 08:25:00 7.4 C 7.55 g/m*3 7.4 C 0 km/h
103 19-10-2020 08:30:00 7.4 C 7.55 g/m*3 7.4 C 0 km/h
104 19-10-2020 08:35:00 7.4 C 7.55 g/m*3 7.4 C 0 km/h
105 19-10-2020 08:40:00 7.5 C 7.6 g/m*3 7.5 C 0 km/h
106 19-10-2020 08:45:00 7.6 C 7.65 g/m*3 7.6 C 0 km/h
107 19-10-2020 08:50:00 7.6 C 7.73 g/m*3 7.6 C 0 km/h
108 19-10-2020 08:55:00 7.7 C 7.78 g/m*3 7.7 C 0 km/h
109 19-10-2020 09:00:00 7.7 C 7.78 g/m*3 7.7 C 0 km/h
110 19-10-2020 09:05:00 7.8 C 7.83 g/m*3 7.8 C 0 km/h
111 19-10-2020 09:10:00 7.8 C 7.83 g/m*3 7.8 C 0 km/h
112 19-10-2020 09:15:00 7.9 C 7.89 g/m*3 7.9 C 0 km/h
113 19-10-2020 09:20:00 8.1 C 7.99 g/m*3 8.1 C 0 km/h
114 19-10-2020 09:25:00 8.1 C 7.99 g/m*3 8.1 C 0 km/h
115 19-10-2020 09:30:00 8.2 C 8.04 g/m*3 8.2 C 0 km/h
116 19-10-2020 09:35:00 8.3 C 8.09 g/m*3 8.3 C 0 km/h
117 19-10-2020 09:40:00 8.3 C 8.01 g/m*3 8.3 C 0 km/h
118 19-10-2020 09:45:00 8.3 C 8.01 g/m*3 8.3 C 0 km/h
119 19-10-2020 09:50:00 8.3 C 8.01 g/m*3 8.3 C 0 km/h
120 19-10-2020 09:55:00 8.3 C 8.01 g/m*3 8.3 C 0 km/h
121 19-10-2020 10:00:00 8.2 C 7.96 g/m*3 8.2 C 0 km/h
122 19-10-2020 10:05:00 8.1 C 7.9 g/m*3 8.1 C 0 km/h
123 19-10-2020 10:10:00 7.9 C 7.8 g/m*3 7.9 C 0 km/h
124 19-10-2020 10:15:00 7.8 C 7.75 g/m*3 7.8 C 0 km/h
125 19-10-2020 10:20:00 7.8 C 7.75 g/m*3 7.8 C 0 km/h
Sensor: Nr:Datum:Temp:Abs-Feuchte:Windchill:Wind:
Aussen-T/F 126 19-10-2020 10:25:00 7.7 C 7.7 g/m*3 7.7 C 3.2 km/h
127 19-10-2020 10:30:00 7.7 C 7.7 g/m*3 7.7 C 4.8 km/h
128 19-10-2020 10:35:00 7.7 C 7.7 g/m*3 7.7 C 4.8 km/h
129 19-10-2020 10:40:00 7.7 C 7.7 g/m*3 7.7 C 3.2 km/h
130 19-10-2020 10:45:00 7.8 C 7.75 g/m*3 7.8 C 0 km/h
131 19-10-2020 10:50:00 7.8 C 7.75 g/m*3 7.8 C 0 km/h
132 19-10-2020 10:55:00 7.8 C 7.75 g/m*3 7.8 C 0 km/h
133 19-10-2020 11:00:00 7.9 C 7.8 g/m*3 7.9 C 3.2 km/h
134 19-10-2020 11:05:00 8 C 7.85 g/m*3 8 C 3.2 km/h
135 19-10-2020 11:10:00 8.1 C 7.99 g/m*3 8.1 C 1.6 km/h
136 19-10-2020 11:15:00 8.2 C 8.04 g/m*3 8.2 C 3.2 km/h
137 19-10-2020 11:20:00 8.4 C 8.14 g/m*3 8.4 C 4.8 km/h
138 19-10-2020 11:25:00 8.6 C 8.25 g/m*3 8.6 C 3.2 km/h
139 19-10-2020 11:30:00 8.7 C 8.3 g/m*3 8.7 C 3.2 km/h
140 19-10-2020 11:35:00 8.8 C 8.36 g/m*3 8.8 C 3.2 km/h
141 19-10-2020 11:40:00 8.9 C 8.41 g/m*3 8.9 C 1.6 km/h
142 19-10-2020 11:45:00 9.1 C 8.52 g/m*3 9.1 C 0 km/h
143 19-10-2020 11:50:00 9.2 C 8.57 g/m*3 9.2 C 0 km/h
144 19-10-2020 11:55:00 9.3 C 8.63 g/m*3 9.3 C 0 km/h
145 19-10-2020 12:00:00 9.4 C 8.68 g/m*3 9.4 C 0 km/h
146 19-10-2020 12:05:00 9.5 C 8.74 g/m*3 9.5 C 0 km/h
147 19-10-2020 12:10:00 9.6 C 8.79 g/m*3 9.6 C 0 km/h
148 19-10-2020 12:15:00 9.7 C 8.76 g/m*3 9.7 C 0 km/h
149 19-10-2020 12:20:00 9.7 C 8.76 g/m*3 9.7 C 0 km/h
150 19-10-2020 12:25:00 9.7 C 8.76 g/m*3 9.7 C 0 km/h
Sensor: Nr:Datum:Temp:Abs-Feuchte:Windchill:Wind:
Aussen-T/F 151 19-10-2020 12:30:00 9.9 C 8.87 g/m*3 9.9 C 0 km/h
152 19-10-2020 12:35:00 9.9 C 8.87 g/m*3 9.9 C 0 km/h
153 19-10-2020 12:40:00 10.1 C 8.98 g/m*3 10.1 C 0 km/h
154 19-10-2020 12:45:00 10.1 C 8.98 g/m*3 10.1 C 0 km/h
155 19-10-2020 12:50:00 10.2 C 9.04 g/m*3 10.2 C 0 km/h
156 19-10-2020 12:55:00 10.2 C 9.04 g/m*3 10.2 C 0 km/h
157 19-10-2020 13:00:00 10.2 C 8.95 g/m*3 10.2 C 0 km/h
158 19-10-2020 13:05:00 10.3 C 9 g/m*3 10.3 C 0 km/h
159 19-10-2020 13:10:00 10.3 C 9 g/m*3 10.3 C 0 km/h
160 19-10-2020 13:15:00 10.3 C 9 g/m*3 10.3 C 3.2 km/h
161 19-10-2020 13:20:00 10.3 C 9 g/m*3 10.3 C 3.2 km/h
162 19-10-2020 13:25:00 10.4 C 9.06 g/m*3 10.4 C 3.2 km/h
163 19-10-2020 13:30:00 10.4 C 9.06 g/m*3 10.4 C 1.6 km/h
164 19-10-2020 13:35:00 10.6 C 9.17 g/m*3 10.6 C 1.6 km/h
165 19-10-2020 13:40:00 10.7 C 9.23 g/m*3 10.7 C 1.6 km/h
166 19-10-2020 13:45:00 10.8 C 9.29 g/m*3 10.8 C 1.6 km/h
167 19-10-2020 13:50:00 11 C 9.41 g/m*3 11 C 0 km/h
168 19-10-2020 13:55:00 11.1 C 9.47 g/m*3 11.1 C 0 km/h
169 19-10-2020 14:00:00 11.3 C 9.59 g/m*3 11.3 C 0 km/h
170 19-10-2020 14:05:00 11.4 C 9.55 g/m*3 11.4 C 0 km/h
171 19-10-2020 14:10:00 11.6 C 9.67 g/m*3 11.6 C 0 km/h
172 19-10-2020 14:15:00 11.6 C 9.56 g/m*3 11.6 C 0 km/h
173 19-10-2020 14:20:00 11.8 C 9.79 g/m*3 11.8 C 0 km/h
174 19-10-2020 14:25:00 11.9 C 9.74 g/m*3 11.9 C 0 km/h
175 19-10-2020 14:30:00 12 C 9.59 g/m*3 12 C 0 km/h
Sensor: Nr:Datum:Temp:Abs-Feuchte:Windchill:Wind:
Aussen-T/F 176 19-10-2020 14:35:00 12.2 C 9.82 g/m*3 12.2 C 0 km/h
177 19-10-2020 14:40:00 12.3 C 9.77 g/m*3 12.3 C 0 km/h
178 19-10-2020 14:45:00 12.3 C 9.56 g/m*3 12.3 C 0 km/h
179 19-10-2020 14:50:00 12.4 C 9.51 g/m*3 12.4 C 0 km/h
180 19-10-2020 14:55:00 12.4 C 9.18 g/m*3 12.4 C 0 km/h
181 19-10-2020 15:00:00 12.5 C 8.91 g/m*3 12.5 C 1.6 km/h
182 19-10-2020 15:05:00 12.6 C 8.74 g/m*3 12.6 C 1.6 km/h
183 19-10-2020 15:10:00 12.7 C 8.91 g/m*3 12.7 C 1.6 km/h
184 19-10-2020 15:15:00 12.8 C 8.62 g/m*3 12.8 C 0 km/h
185 19-10-2020 15:20:00 12.8 C 8.74 g/m*3 12.8 C 0 km/h
186 19-10-2020 15:25:00 12.9 C 9.02 g/m*3 12.9 C 0 km/h
187 19-10-2020 15:30:00 13.1 C 9.36 g/m*3 13.1 C 0 km/h
188 19-10-2020 15:35:00 13.2 C 9.19 g/m*3 13.2 C 0 km/h
189 19-10-2020 15:40:00 13.1 C 8.79 g/m*3 13.1 C 0 km/h
190 19-10-2020 15:45:00 13.2 C 9.3 g/m*3 13.2 C 0 km/h
191 19-10-2020 15:50:00 13.3 C 9.59 g/m*3 13.3 C 1.6 km/h
192 19-10-2020 15:55:00 13.3 C 9.47 g/m*3 13.3 C 0 km/h
193 19-10-2020 16:00:00 13.2 C 9.53 g/m*3 13.2 C 0 km/h
194 19-10-2020 16:05:00 13.1 C 9.36 g/m*3 13.1 C 3.2 km/h
195 19-10-2020 16:10:00 12.9 C 9.24 g/m*3 12.9 C 3.2 km/h
196 19-10-2020 16:15:00 12.8 C 9.07 g/m*3 12.8 C 3.2 km/h
197 19-10-2020 16:20:00 12.6 C 8.96 g/m*3 12.6 C 4.8 km/h
198 19-10-2020 16:25:00 12.4 C 8.85 g/m*3 12.4 C 3.2 km/h
199 19-10-2020 16:30:00 12.3 C 8.9 g/m*3 12.3 C 3.2 km/h
200 19-10-2020 16:35:00 12.3 C 8.9 g/m*3 12.3 C 4.8 km/h
Sensor: Nr:Datum:Temp:Abs-Feuchte:Windchill:Wind:
Aussen-T/F 201 19-10-2020 16:40:00 12.2 C 8.85 g/m*3 12.2 C 4.8 km/h
202 19-10-2020 16:45:00 12.2 C 8.96 g/m*3 12.2 C 4.8 km/h
203 19-10-2020 16:50:00 12.2 C 9.06 g/m*3 12.2 C 3.2 km/h
204 19-10-2020 16:55:00 12.2 C 9.06 g/m*3 12.2 C 4.8 km/h
205 19-10-2020 17:00:00 12.1 C 8.79 g/m*3 12.1 C 6.4 km/h
206 19-10-2020 17:05:00 12.1 C 8.79 g/m*3 12.1 C 6.4 km/h
207 19-10-2020 17:10:00 11.9 C 8.68 g/m*3 11.9 C 4.8 km/h
208 19-10-2020 17:15:00 11.7 C 8.58 g/m*3 11.7 C 4.8 km/h
209 19-10-2020 17:20:00 11.3 C 8.26 g/m*3 11.3 C 4.8 km/h
210 19-10-2020 17:25:00 11 C 8.11 g/m*3 10.52 C 6.4 km/h
211 19-10-2020 17:30:00 10.7 C 8.05 g/m*3 10.18 C 6.4 km/h
212 19-10-2020 17:35:00 10.5 C 8.05 g/m*3 9.95 C 6.4 km/h
213 19-10-2020 17:40:00 10.3 C 8.04 g/m*3 9.34 C 8.1 km/h
214 19-10-2020 17:45:00 10.1 C 7.94 g/m*3 9.48 C 6.4 km/h
215 19-10-2020 17:50:00 9.9 C 7.84 g/m*3 9.9 C 4.8 km/h
216 19-10-2020 17:55:00 9.7 C 7.84 g/m*3 9.02 C 6.4 km/h
217 19-10-2020 18:00:00 9.5 C 7.74 g/m*3 9.5 C 4.8 km/h
218 19-10-2020 18:05:00 9.3 C 7.73 g/m*3 9.3 C 4.8 km/h
219 19-10-2020 18:10:00 9.2 C 7.68 g/m*3 9.2 C 4.8 km/h
220 19-10-2020 18:15:00 9 C 7.58 g/m*3 9 C 4.8 km/h
221 19-10-2020 18:20:00 8.8 C 7.57 g/m*3 8.8 C 4.8 km/h
222 19-10-2020 18:25:00 8.7 C 7.61 g/m*3 8.7 C 3.2 km/h
223 19-10-2020 18:30:00 8.5 C 7.51 g/m*3 8.5 C 4.8 km/h
224 19-10-2020 18:35:00 8.3 C 7.42 g/m*3 8.3 C 4.8 km/h
225 19-10-2020 18:40:00 8.2 C 7.37 g/m*3 8.2 C 4.8 km/h
Sensor: Nr:Datum:Temp:Abs-Feuchte:Windchill:Wind:
Aussen-T/F 226 19-10-2020 18:45:00 8.1 C 7.41 g/m*3 7.17 C 6.4 km/h
227 19-10-2020 18:50:00 7.9 C 7.31 g/m*3 6.94 C 6.4 km/h
228 19-10-2020 18:55:00 7.8 C 7.26 g/m*3 7.8 C 4.8 km/h
229 19-10-2020 19:00:00 7.7 C 7.3 g/m*3 7.7 C 4.8 km/h
230 19-10-2020 19:05:00 7.7 C 7.3 g/m*3 7.7 C 4.8 km/h
231 19-10-2020 19:10:00 7.6 C 7.25 g/m*3 7.6 C 4.8 km/h
232 19-10-2020 19:15:00 7.6 C 7.25 g/m*3 6.6 C 6.4 km/h
233 19-10-2020 19:20:00 7.5 C 7.28 g/m*3 6.48 C 6.4 km/h
234 19-10-2020 19:25:00 7.4 C 7.24 g/m*3 6.37 C 6.4 km/h
235 19-10-2020 19:30:00 7.3 C 7.19 g/m*3 7.3 C 4.8 km/h
236 19-10-2020 19:35:00 7.3 C 7.19 g/m*3 6.25 C 6.4 km/h
237 19-10-2020 19:40:00 7.2 C 7.14 g/m*3 7.2 C 4.8 km/h
238 19-10-2020 19:45:00 7.2 C 7.14 g/m*3 7.2 C 4.8 km/h
239 19-10-2020 19:50:00 7.1 C 7.1 g/m*3 7.1 C 3.2 km/h
240 19-10-2020 19:55:00 7 C 7.05 g/m*3 7 C 4.8 km/h
241 19-10-2020 20:00:00 6.9 C 7.01 g/m*3 6.9 C 4.8 km/h
242 19-10-2020 20:05:00 6.9 C 7.01 g/m*3 6.9 C 4.8 km/h
243 19-10-2020 20:10:00 6.8 C 6.96 g/m*3 5.67 C 6.4 km/h
244 19-10-2020 20:15:00 6.8 C 6.96 g/m*3 6.8 C 4.8 km/h
245 19-10-2020 20:20:00 6.7 C 6.91 g/m*3 6.7 C 4.8 km/h
246 19-10-2020 20:25:00 6.7 C 6.91 g/m*3 5.56 C 6.4 km/h
247 19-10-2020 20:30:00 6.7 C 6.91 g/m*3 5.56 C 6.4 km/h
248 19-10-2020 20:35:00 6.7 C 6.91 g/m*3 5.56 C 6.4 km/h
249 19-10-2020 20:40:00 6.7 C 6.91 g/m*3 5.11 C 8.1 km/h
250 19-10-2020 20:45:00 6.7 C 6.99 g/m*3 5.56 C 6.4 km/h
Sensor: Nr:Datum:Temp:Abs-Feuchte:Windchill:Wind:
Aussen-T/F 251 19-10-2020 20:50:00 6.7 C 6.99 g/m*3 5.56 C 6.4 km/h
252 19-10-2020 20:55:00 6.7 C 6.99 g/m*3 5.56 C 6.4 km/h
253 19-10-2020 21:00:00 6.6 C 6.95 g/m*3 6.6 C 4.8 km/h
254 19-10-2020 21:05:00 6.6 C 6.95 g/m*3 6.6 C 4.8 km/h
255 19-10-2020 21:10:00 6.6 C 6.95 g/m*3 5.44 C 6.4 km/h
256 19-10-2020 21:15:00 6.6 C 6.95 g/m*3 5.44 C 6.4 km/h
257 19-10-2020 21:20:00 6.6 C 6.95 g/m*3 6.6 C 4.8 km/h
258 19-10-2020 21:25:00 6.5 C 6.9 g/m*3 6.5 C 4.8 km/h
259 19-10-2020 21:30:00 6.4 C 6.85 g/m*3 5.21 C 6.4 km/h
260 19-10-2020 21:35:00 6.4 C 6.85 g/m*3 6.4 C 3.2 km/h
261 19-10-2020 21:40:00 6.3 C 6.81 g/m*3 6.3 C 4.8 km/h
262 19-10-2020 21:45:00 6.3 C 6.81 g/m*3 6.3 C 4.8 km/h
263 19-10-2020 21:50:00 6.2 C 6.77 g/m*3 6.2 C 4.8 km/h
264 19-10-2020 21:55:00 6.2 C 6.77 g/m*3 6.2 C 4.8 km/h
265 19-10-2020 22:00:00 6.1 C 6.72 g/m*3 6.1 C 3.2 km/h
266 19-10-2020 22:05:00 6.1 C 6.72 g/m*3 6.1 C 0 km/h
267 19-10-2020 22:10:00 6 C 6.68 g/m*3 6 C 0 km/h
268 19-10-2020 22:15:00 5.9 C 6.63 g/m*3 5.9 C 0 km/h
269 19-10-2020 22:20:00 5.8 C 6.59 g/m*3 5.8 C 0 km/h
270 19-10-2020 22:25:00 5.8 C 6.66 g/m*3 5.8 C 0 km/h
271 19-10-2020 22:30:00 5.7 C 6.62 g/m*3 5.7 C 0 km/h
272 19-10-2020 22:35:00 5.7 C 6.62 g/m*3 5.7 C 0 km/h
273 19-10-2020 22:40:00 5.6 C 6.57 g/m*3 5.6 C 0 km/h
274 19-10-2020 22:45:00 5.6 C 6.57 g/m*3 5.6 C 0 km/h
275 19-10-2020 22:50:00 5.5 C 6.53 g/m*3 5.5 C 0 km/h
Sensor: Nr:Datum:Temp:Abs-Feuchte:Windchill:Wind:
Aussen-T/F 276 19-10-2020 22:55:00 5.4 C 6.49 g/m*3 5.4 C 0 km/h
277 19-10-2020 23:00:00 5.4 C 6.49 g/m*3 5.4 C 0 km/h
278 19-10-2020 23:05:00 5.3 C 6.45 g/m*3 5.3 C 0 km/h
279 19-10-2020 23:10:00 5.3 C 6.45 g/m*3 5.3 C 0 km/h
280 19-10-2020 23:15:00 5.3 C 6.52 g/m*3 5.3 C 0 km/h
281 19-10-2020 23:20:00 5.3 C 6.52 g/m*3 5.3 C 0 km/h
282 19-10-2020 23:25:00 5.3 C 6.52 g/m*3 5.3 C 0 km/h
283 19-10-2020 23:30:00 5.3 C 6.52 g/m*3 5.3 C 0 km/h
284 19-10-2020 23:35:00 5.2 C 6.47 g/m*3 5.2 C 4.8 km/h
285 19-10-2020 23:40:00 5.3 C 6.52 g/m*3 5.3 C 3.2 km/h
286 19-10-2020 23:45:00 5.3 C 6.52 g/m*3 5.3 C 3.2 km/h
287 19-10-2020 23:50:00 5.2 C 6.47 g/m*3 5.2 C 3.2 km/h
288 19-10-2020 23:55:00 5.2 C 6.47 g/m*3 5.2 C 3.2 km/h
289 20-10-2020 00:00:00 5.2 C 6.47 g/m*3 5.2 C 1.6 km/h
290 20-10-2020 00:05:00 5.3 C 6.58 g/m*3 3.94 C 6.4 km/h
291 20-10-2020 00:10:00 5.3 C 6.52 g/m*3 5.3 C 3.2 km/h
292 20-10-2020 00:15:00 5.2 C 6.47 g/m*3 5.2 C 3.2 km/h
293 20-10-2020 00:20:00 5.2 C 6.54 g/m*3 5.2 C 1.6 km/h
294 20-10-2020 00:25:00 5.2 C 6.54 g/m*3 5.2 C 4.8 km/h
295 20-10-2020 00:30:00 5.2 C 6.54 g/m*3 5.2 C 1.6 km/h
296 20-10-2020 00:35:00 5.2 C 6.54 g/m*3 5.2 C 3.2 km/h
297 20-10-2020 00:40:00 5.2 C 6.54 g/m*3 5.2 C 0 km/h
298 20-10-2020 00:45:00 5.2 C 6.54 g/m*3 5.2 C 3.2 km/h
299 20-10-2020 00:50:00 5.2 C 6.47 g/m*3 5.2 C 3.2 km/h
300 20-10-2020 00:55:00 5.1 C 6.43 g/m*3 5.1 C 3.2 km/h
Sensor: Nr:Datum:Temp:Abs-Feuchte:Windchill:Wind:
Aussen-T/F 301 20-10-2020 01:00:00 5.1 C 6.43 g/m*3 5.1 C 1.6 km/h
302 20-10-2020 01:05:00 5.1 C 6.43 g/m*3 5.1 C 3.2 km/h
303 20-10-2020 01:10:00 5.1 C 6.43 g/m*3 5.1 C 3.2 km/h
304 20-10-2020 01:15:00 5 C 6.39 g/m*3 5 C 1.6 km/h
305 20-10-2020 01:20:00 5.1 C 6.5 g/m*3 5.1 C 3.2 km/h
306 20-10-2020 01:25:00 5 C 6.39 g/m*3 5 C 3.2 km/h
307 20-10-2020 01:30:00 5 C 6.39 g/m*3 5 C 1.6 km/h
308 20-10-2020 01:35:00 5.1 C 6.43 g/m*3 3.71 C 6.4 km/h
309 20-10-2020 01:40:00 5.2 C 6.54 g/m*3 5.2 C 4.8 km/h
310 20-10-2020 01:45:00 5.3 C 6.58 g/m*3 3.94 C 6.4 km/h
311 20-10-2020 01:50:00 5.4 C 6.63 g/m*3 5.4 C 1.6 km/h
312 20-10-2020 01:55:00 5.5 C 6.6 g/m*3 5.5 C 0 km/h
313 20-10-2020 02:00:00 5.4 C 6.56 g/m*3 5.4 C 3.2 km/h
314 20-10-2020 02:05:00 5.4 C 6.56 g/m*3 5.4 C 1.6 km/h
315 20-10-2020 02:10:00 5.4 C 6.56 g/m*3 5.4 C 3.2 km/h
316 20-10-2020 02:15:00 5.3 C 6.45 g/m*3 5.3 C 1.6 km/h
317 20-10-2020 02:20:00 5.2 C 6.4 g/m*3 5.2 C 1.6 km/h
318 20-10-2020 02:25:00 5.2 C 6.4 g/m*3 5.2 C 1.6 km/h
319 20-10-2020 02:30:00 5.1 C 6.36 g/m*3 5.1 C 1.6 km/h
320 20-10-2020 02:35:00 5.1 C 6.36 g/m*3 5.1 C 3.2 km/h
321 20-10-2020 02:40:00 4.9 C 6.28 g/m*3 4.9 C 3.2 km/h
322 20-10-2020 02:45:00 4.9 C 6.35 g/m*3 4.9 C 0 km/h
323 20-10-2020 02:50:00 4.9 C 6.35 g/m*3 4.9 C 1.6 km/h
324 20-10-2020 02:55:00 4.9 C 6.35 g/m*3 4.9 C 4.8 km/h
325 20-10-2020 03:00:00 4.9 C 6.35 g/m*3 4.9 C 1.6 km/h
Sensor: Nr:Datum:Temp:Abs-Feuchte:Windchill:Wind:
Aussen-T/F 326 20-10-2020 03:05:00 4.9 C 6.35 g/m*3 4.9 C 3.2 km/h
327 20-10-2020 03:10:00 4.9 C 6.35 g/m*3 4.9 C 3.2 km/h
328 20-10-2020 03:15:00 4.9 C 6.35 g/m*3 4.9 C 4.8 km/h
329 20-10-2020 03:20:00 4.9 C 6.35 g/m*3 4.9 C 1.6 km/h
330 20-10-2020 03:25:00 5 C 6.39 g/m*3 5 C 3.2 km/h
331 20-10-2020 03:30:00 4.9 C 6.35 g/m*3 4.9 C 3.2 km/h
332 20-10-2020 03:35:00 4.9 C 6.35 g/m*3 4.9 C 0 km/h
333 20-10-2020 03:40:00 4.9 C 6.41 g/m*3 4.9 C 3.2 km/h
334 20-10-2020 03:45:00 4.9 C 6.41 g/m*3 4.9 C 1.6 km/h
335 20-10-2020 03:50:00 4.9 C 6.41 g/m*3 4.9 C 3.2 km/h
336 20-10-2020 03:55:00 4.8 C 6.37 g/m*3 4.8 C 3.2 km/h
337 20-10-2020 04:00:00 4.8 C 6.37 g/m*3 4.8 C 1.6 km/h
338 20-10-2020 04:05:00 4.8 C 6.37 g/m*3 4.8 C 3.2 km/h
339 20-10-2020 04:10:00 4.8 C 6.37 g/m*3 4.8 C 1.6 km/h
340 20-10-2020 04:15:00 4.8 C 6.37 g/m*3 4.8 C 1.6 km/h
341 20-10-2020 04:20:00 4.7 C 6.26 g/m*3 4.7 C 4.8 km/h
342 20-10-2020 04:25:00 4.6 C 6.22 g/m*3 4.6 C 0 km/h
343 20-10-2020 04:30:00 4.6 C 6.29 g/m*3 4.6 C 3.2 km/h
344 20-10-2020 04:35:00 4.6 C 6.29 g/m*3 4.6 C 3.2 km/h
345 20-10-2020 04:40:00 4.6 C 6.29 g/m*3 4.6 C 3.2 km/h
346 20-10-2020 04:45:00 4.5 C 6.24 g/m*3 4.5 C 4.8 km/h
347 20-10-2020 04:50:00 4.4 C 6.2 g/m*3 4.4 C 4.8 km/h
348 20-10-2020 04:55:00 4.4 C 6.2 g/m*3 4.4 C 3.2 km/h
349 20-10-2020 05:00:00 4.5 C 6.24 g/m*3 4.5 C 4.8 km/h
350 20-10-2020 05:05:00 4.6 C 6.29 g/m*3 4.6 C 1.6 km/h
Sensor: Nr:Datum:Temp:Abs-Feuchte:Windchill:Wind:
Aussen-T/F 351 20-10-2020 05:10:00 4.7 C 6.33 g/m*3 4.7 C 0 km/h
352 20-10-2020 05:15:00 4.7 C 6.33 g/m*3 4.7 C 1.6 km/h
353 20-10-2020 05:20:00 4.8 C 6.44 g/m*3 4.8 C 3.2 km/h
354 20-10-2020 05:25:00 4.9 C 6.48 g/m*3 4.9 C 0 km/h
355 20-10-2020 05:30:00 5.1 C 6.57 g/m*3 5.1 C 0 km/h
356 20-10-2020 05:35:00 5.2 C 6.61 g/m*3 5.2 C 0 km/h
357 20-10-2020 05:40:00 5.2 C 6.61 g/m*3 5.2 C 3.2 km/h
358 20-10-2020 05:45:00 5.3 C 6.65 g/m*3 5.3 C 0 km/h
359 20-10-2020 05:50:00 5.4 C 6.7 g/m*3 5.4 C 0 km/h
360 20-10-2020 05:55:00 5.4 C 6.7 g/m*3 5.4 C 0 km/h
361 20-10-2020 06:00:00 5.5 C 6.74 g/m*3 5.5 C 0 km/h
362 20-10-2020 06:05:00 5.5 C 6.74 g/m*3 5.5 C 0 km/h
363 20-10-2020 06:10:00 5.6 C 6.79 g/m*3 5.6 C 3.2 km/h
364 20-10-2020 06:15:00 5.6 C 6.79 g/m*3 5.6 C 3.2 km/h
365 20-10-2020 06:20:00 5.7 C 6.83 g/m*3 5.7 C 0 km/h
366 20-10-2020 06:25:00 5.7 C 6.83 g/m*3 5.7 C 0 km/h
367 20-10-2020 06:30:00 5.6 C 6.79 g/m*3 5.6 C 0 km/h
368 20-10-2020 06:35:00 5.6 C 6.72 g/m*3 5.6 C 0 km/h
369 20-10-2020 06:40:00 5.6 C 6.79 g/m*3 5.6 C 0 km/h
370 20-10-2020 06:45:00 5.6 C 6.79 g/m*3 5.6 C 1.6 km/h
371 20-10-2020 06:55:00 5.6 C 6.79 g/m*3 5.6 C 1.6 km/h
372 20-10-2020 07:00:00 5.7 C 6.83 g/m*3 5.7 C 4.8 km/h
373 20-10-2020 07:05:00 5.8 C 6.88 g/m*3 5.8 C 0 km/h
374 20-10-2020 07:10:00 5.9 C 6.92 g/m*3 5.9 C 0 km/h
375 20-10-2020 07:15:00 5.9 C 6.92 g/m*3 5.9 C 0 km/h
Sensor: Nr:Datum:Temp:Abs-Feuchte:Windchill:Wind:
Aussen-T/F 376 20-10-2020 07:20:00 5.9 C 6.92 g/m*3 5.9 C 0 km/h
377 20-10-2020 07:25:00 5.8 C 6.81 g/m*3 5.8 C 0 km/h
378 20-10-2020 07:30:00 5.8 C 6.81 g/m*3 5.8 C 0 km/h
379 20-10-2020 07:35:00 5.8 C 6.81 g/m*3 5.8 C 0 km/h
380 20-10-2020 07:40:00 5.8 C 6.88 g/m*3 5.8 C 0 km/h
381 20-10-2020 07:45:00 5.8 C 6.88 g/m*3 5.8 C 0 km/h
382 20-10-2020 07:50:00 5.8 C 6.88 g/m*3 5.8 C 0 km/h
383 20-10-2020 07:55:00 5.9 C 6.92 g/m*3 5.9 C 0 km/h
384 20-10-2020 08:00:00 5.9 C 6.92 g/m*3 5.9 C 0 km/h
385 20-10-2020 08:05:00 5.9 C 6.85 g/m*3 5.9 C 3.2 km/h
386 20-10-2020 08:10:00 5.9 C 6.85 g/m*3 5.9 C 0 km/h
387 20-10-2020 08:15:00 5.9 C 6.85 g/m*3 5.9 C 0 km/h
388 20-10-2020 08:20:00 5.9 C 6.85 g/m*3 5.9 C 1.6 km/h
389 20-10-2020 08:25:00 6 C 6.97 g/m*3 6 C 0 km/h
390 20-10-2020 08:30:00 6 C 6.97 g/m*3 6 C 1.6 km/h
391 20-10-2020 08:35:00 6 C 6.9 g/m*3 6 C 0 km/h
392 20-10-2020 08:40:00 5.9 C 6.85 g/m*3 5.9 C 0 km/h
393 20-10-2020 08:45:00 5.9 C 6.85 g/m*3 5.9 C 0 km/h
394 20-10-2020 08:50:00 5.9 C 6.85 g/m*3 5.9 C 0 km/h
395 20-10-2020 08:55:00 6 C 6.97 g/m*3 6 C 0 km/h
396 20-10-2020 09:00:00 6.1 C 7.01 g/m*3 6.1 C 0 km/h
397 20-10-2020 09:05:00 6.2 C 7.06 g/m*3 6.2 C 0 km/h
398 20-10-2020 09:10:00 6.3 C 7.11 g/m*3 6.3 C 0 km/h
399 20-10-2020 09:15:00 6.3 C 7.11 g/m*3 6.3 C 0 km/h
400 20-10-2020 09:20:00 6.5 C 7.2 g/m*3 6.5 C 1.6 km/h
Sensor: Nr:Datum:Temp:Abs-Feuchte:Windchill:Wind:
Aussen-T/F 401 20-10-2020 09:25:00 6.6 C 7.25 g/m*3 6.6 C 0 km/h
402 20-10-2020 09:30:00 6.7 C 7.29 g/m*3 6.7 C 0 km/h
403 20-10-2020 09:35:00 6.8 C 7.34 g/m*3 6.8 C 0 km/h
404 20-10-2020 09:40:00 6.9 C 7.39 g/m*3 6.9 C 0 km/h
405 20-10-2020 09:45:00 7.1 C 7.49 g/m*3 7.1 C 1.6 km/h
406 20-10-2020 09:50:00 7.2 C 7.54 g/m*3 7.2 C 0 km/h
407 20-10-2020 09:55:00 7.3 C 7.58 g/m*3 6.25 C 6.4 km/h
408 20-10-2020 10:00:00 7.4 C 7.63 g/m*3 7.4 C 3.2 km/h
409 20-10-2020 10:05:00 7.5 C 7.68 g/m*3 7.5 C 0 km/h
410 20-10-2020 10:10:00 7.7 C 7.78 g/m*3 7.7 C 0 km/h
411 20-10-2020 10:15:00 7.8 C 7.83 g/m*3 7.8 C 0 km/h
412 20-10-2020 10:20:00 8 C 7.94 g/m*3 8 C 1.6 km/h
413 20-10-2020 10:25:00 8.2 C 8.04 g/m*3 8.2 C 3.2 km/h
414 20-10-2020 10:30:00 8.2 C 7.96 g/m*3 8.2 C 0 km/h
415 20-10-2020 10:35:00 8.3 C 8.01 g/m*3 8.3 C 0 km/h
416 20-10-2020 10:40:00 8.4 C 8.06 g/m*3 8.4 C 0 km/h
417 20-10-2020 10:45:00 8.4 C 8.06 g/m*3 8.4 C 1.6 km/h
418 20-10-2020 10:50:00 8.6 C 8.08 g/m*3 8.6 C 0 km/h
419 20-10-2020 10:55:00 8.7 C 8.13 g/m*3 8.7 C 1.6 km/h
420 20-10-2020 11:00:00 8.8 C 8.18 g/m*3 8.8 C 0 km/h
421 20-10-2020 11:05:00 8.9 C 8.32 g/m*3 8.9 C 0 km/h
422 20-10-2020 11:10:00 9.2 C 8.48 g/m*3 9.2 C 0 km/h
423 20-10-2020 11:15:00 9.4 C 8.59 g/m*3 9.4 C 0 km/h
424 20-10-2020 11:20:00 9.6 C 8.61 g/m*3 9.6 C 0 km/h
425 20-10-2020 11:25:00 9.8 C 8.72 g/m*3 9.8 C 1.6 km/h
Sensor: Nr:Datum:Temp:Abs-Feuchte:Windchill:Wind:
Aussen-T/F 426 20-10-2020 11:30:00 9.9 C 8.68 g/m*3 9.9 C 0 km/h
427 20-10-2020 11:35:00 10.1 C 8.79 g/m*3 10.1 C 0 km/h
428 20-10-2020 11:40:00 10.3 C 8.91 g/m*3 10.3 C 0 km/h
429 20-10-2020 11:45:00 10.5 C 9.12 g/m*3 10.5 C 0 km/h
430 20-10-2020 11:50:00 10.7 C 9.13 g/m*3 10.7 C 0 km/h
431 20-10-2020 11:55:00 10.8 C 9.19 g/m*3 10.8 C 0 km/h
432 20-10-2020 12:00:00 10.9 C 9.15 g/m*3 10.9 C 0 km/h
433 20-10-2020 12:05:00 11 C 9.21 g/m*3 11 C 0 km/h
434 20-10-2020 12:10:00 11.2 C 9.33 g/m*3 11.2 C 0 km/h
435 20-10-2020 12:15:00 11.3 C 9.38 g/m*3 11.3 C 0 km/h
436 20-10-2020 12:20:00 11.4 C 9.44 g/m*3 11.4 C 0 km/h
437 20-10-2020 12:25:00 11.5 C 9.5 g/m*3 11.5 C 0 km/h
438 20-10-2020 12:30:00 11.6 C 9.56 g/m*3 11.6 C 0 km/h
439 20-10-2020 12:35:00 11.7 C 9.62 g/m*3 11.7 C 0 km/h
440 20-10-2020 12:40:00 11.7 C 9.62 g/m*3 11.7 C 0 km/h
441 20-10-2020 12:45:00 11.7 C 9.52 g/m*3 11.7 C 0 km/h
442 20-10-2020 12:50:00 11.7 C 9.52 g/m*3 11.7 C 0 km/h
443 20-10-2020 12:55:00 11.7 C 9.52 g/m*3 11.7 C 0 km/h
444 20-10-2020 13:00:00 11.7 C 9.52 g/m*3 11.7 C 0 km/h
445 20-10-2020 13:05:00 11.7 C 9.52 g/m*3 11.7 C 0 km/h
446 20-10-2020 13:10:00 11.8 C 9.68 g/m*3 11.8 C 0 km/h
447 20-10-2020 13:15:00 11.8 C 9.68 g/m*3 11.8 C 3.2 km/h
448 20-10-2020 13:20:00 11.8 C 9.68 g/m*3 11.8 C 1.6 km/h
449 20-10-2020 13:25:00 11.8 C 9.68 g/m*3 11.8 C 0 km/h
450 20-10-2020 13:30:00 11.8 C 9.68 g/m*3 11.8 C 0 km/h
Sensor: Nr:Datum:Temp:Abs-Feuchte:Windchill:Wind:
Aussen-T/F 451 20-10-2020 13:35:00 11.8 C 9.68 g/m*3 11.8 C 0 km/h
452 20-10-2020 13:40:00 11.8 C 9.68 g/m*3 11.8 C 0 km/h
453 20-10-2020 13:45:00 11.8 C 9.68 g/m*3 11.8 C 0 km/h
454 20-10-2020 13:50:00 11.8 C 9.68 g/m*3 11.8 C 0 km/h
455 20-10-2020 13:55:00 11.7 C 9.62 g/m*3 11.7 C 0 km/h
456 20-10-2020 14:00:00 11.7 C 9.62 g/m*3 11.7 C 1.6 km/h
457 20-10-2020 14:05:00 11.7 C 9.62 g/m*3 11.7 C 0 km/h
458 20-10-2020 14:10:00 11.7 C 9.62 g/m*3 11.7 C 1.6 km/h
459 20-10-2020 14:15:00 11.7 C 9.62 g/m*3 11.7 C 0 km/h
460 20-10-2020 14:20:00 11.8 C 9.68 g/m*3 11.8 C 1.6 km/h
461 20-10-2020 14:25:00 11.8 C 9.68 g/m*3 11.8 C 0 km/h
462 20-10-2020 14:30:00 11.8 C 9.68 g/m*3 11.8 C 0 km/h
463 20-10-2020 14:35:00 11.9 C 9.74 g/m*3 11.9 C 0 km/h
464 20-10-2020 14:40:00 12 C 9.8 g/m*3 12 C 0 km/h
465 20-10-2020 14:45:00 12.1 C 9.87 g/m*3 12.1 C 0 km/h
466 20-10-2020 14:50:00 12.2 C 9.93 g/m*3 12.2 C 0 km/h
467 20-10-2020 14:55:00 12.3 C 9.99 g/m*3 12.3 C 0 km/h
468 20-10-2020 15:00:00 12.3 C 9.88 g/m*3 12.3 C 0 km/h
469 20-10-2020 15:05:00 12.4 C 9.94 g/m*3 12.4 C 0 km/h
470 20-10-2020 15:10:00 12.4 C 9.94 g/m*3 12.4 C 1.6 km/h
471 20-10-2020 15:15:00 12.5 C 10 g/m*3 12.5 C 0 km/h
472 20-10-2020 15:20:00 12.6 C 10.07 g/m*3 12.6 C 0 km/h
473 20-10-2020 15:25:00 12.6 C 10.07 g/m*3 12.6 C 0 km/h
474 20-10-2020 15:30:00 12.6 C 10.07 g/m*3 12.6 C 0 km/h
475 20-10-2020 15:35:00 12.6 C 10.07 g/m*3 12.6 C 0 km/h
Sensor: Nr:Datum:Temp:Abs-Feuchte:Windchill:Wind:
Aussen-T/F 476 20-10-2020 15:40:00 12.6 C 9.96 g/m*3 12.6 C 0 km/h
477 20-10-2020 15:45:00 12.7 C 10.13 g/m*3 12.7 C 0 km/h
478 20-10-2020 15:50:00 12.7 C 10.13 g/m*3 12.7 C 0 km/h
479 20-10-2020 15:55:00 12.7 C 10.13 g/m*3 12.7 C 0 km/h
480 20-10-2020 16:00:00 12.7 C 10.13 g/m*3 12.7 C 0 km/h
481 20-10-2020 16:05:00 12.7 C 10.13 g/m*3 12.7 C 0 km/h
482 20-10-2020 16:10:00 12.7 C 10.13 g/m*3 12.7 C 0 km/h
483 20-10-2020 16:15:00 12.6 C 10.07 g/m*3 12.6 C 0 km/h
484 20-10-2020 16:20:00 12.5 C 10 g/m*3 12.5 C 0 km/h
485 20-10-2020 16:25:00 12.4 C 9.94 g/m*3 12.4 C 0 km/h
486 20-10-2020 16:30:00 12.4 C 9.94 g/m*3 12.4 C 0 km/h
487 20-10-2020 16:35:00 12.3 C 9.88 g/m*3 12.3 C 0 km/h
488 20-10-2020 16:40:00 12.3 C 9.88 g/m*3 12.3 C 1.6 km/h
489 20-10-2020 16:45:00 12.3 C 9.88 g/m*3 12.3 C 0 km/h
490 20-10-2020 16:50:00 12.2 C 9.82 g/m*3 12.2 C 1.6 km/h
491 20-10-2020 16:55:00 12.2 C 9.93 g/m*3 12.2 C 1.6 km/h
492 20-10-2020 17:00:00 12.2 C 9.82 g/m*3 12.2 C 1.6 km/h
493 20-10-2020 17:05:00 12.2 C 9.93 g/m*3 12.2 C 0 km/h
494 20-10-2020 17:10:00 12.1 C 9.87 g/m*3 12.1 C 3.2 km/h
495 20-10-2020 17:15:00 12.1 C 9.87 g/m*3 12.1 C 3.2 km/h
496 20-10-2020 17:20:00 12.1 C 9.87 g/m*3 12.1 C 0 km/h
497 20-10-2020 17:25:00 12.1 C 9.87 g/m*3 12.1 C 1.6 km/h
498 20-10-2020 17:30:00 12.1 C 9.87 g/m*3 12.1 C 0 km/h
499 20-10-2020 17:35:00 12.1 C 9.87 g/m*3 12.1 C 0 km/h
500 20-10-2020 17:40:00 12.1 C 9.87 g/m*3 12.1 C 0 km/h
Sensor: Nr:Datum:Temp:Abs-Feuchte:Windchill:Wind:
Aussen-T/F 501 20-10-2020 17:45:00 12 C 9.8 g/m*3 12 C 0 km/h
502 20-10-2020 17:50:00 11.9 C 9.74 g/m*3 11.9 C 0 km/h
503 20-10-2020 17:55:00 11.9 C 9.74 g/m*3 11.9 C 0 km/h
504 20-10-2020 18:00:00 11.9 C 9.74 g/m*3 11.9 C 0 km/h
505 20-10-2020 18:05:00 11.9 C 9.74 g/m*3 11.9 C 0 km/h
506 20-10-2020 18:10:00 11.8 C 9.68 g/m*3 11.8 C 3.2 km/h
507 20-10-2020 18:15:00 11.8 C 9.79 g/m*3 11.8 C 1.6 km/h
508 20-10-2020 18:20:00 11.8 C 9.79 g/m*3 11.8 C 0 km/h
509 20-10-2020 18:25:00 11.8 C 9.79 g/m*3 11.8 C 3.2 km/h
510 20-10-2020 18:30:00 11.7 C 9.73 g/m*3 11.7 C 0 km/h
511 20-10-2020 18:35:00 11.7 C 9.73 g/m*3 11.7 C 0 km/h
512 20-10-2020 18:40:00 11.7 C 9.73 g/m*3 11.7 C 0 km/h
513 20-10-2020 18:45:00 11.7 C 9.73 g/m*3 11.7 C 0 km/h
514 20-10-2020 18:50:00 11.7 C 9.73 g/m*3 11.7 C 0 km/h
515 20-10-2020 18:55:00 11.7 C 9.73 g/m*3 11.7 C 3.2 km/h
516 20-10-2020 19:00:00 11.7 C 9.73 g/m*3 11.7 C 0 km/h
517 20-10-2020 19:05:00 11.7 C 9.73 g/m*3 11.7 C 3.2 km/h
518 20-10-2020 19:10:00 11.7 C 9.73 g/m*3 11.7 C 4.8 km/h
519 20-10-2020 19:15:00 11.7 C 9.83 g/m*3 11.7 C 1.6 km/h
520 20-10-2020 19:20:00 11.7 C 9.83 g/m*3 11.7 C 0 km/h
521 20-10-2020 19:25:00 11.7 C 9.83 g/m*3 11.7 C 3.2 km/h
522 20-10-2020 19:30:00 11.7 C 9.83 g/m*3 11.7 C 1.6 km/h
523 20-10-2020 19:35:00 11.7 C 9.83 g/m*3 11.7 C 3.2 km/h
524 20-10-2020 19:40:00 11.7 C 9.83 g/m*3 11.7 C 3.2 km/h
525 20-10-2020 19:45:00 11.7 C 9.83 g/m*3 11.7 C 3.2 km/h
Sensor: Nr:Datum:Temp:Abs-Feuchte:Windchill:Wind:
Aussen-T/F 526 20-10-2020 19:50:00 11.7 C 9.83 g/m*3 11.7 C 4.8 km/h
527 20-10-2020 19:55:00 11.7 C 9.83 g/m*3 11.7 C 3.2 km/h
528 20-10-2020 20:00:00 11.7 C 9.83 g/m*3 11.7 C 1.6 km/h
529 20-10-2020 20:05:00 11.8 C 9.89 g/m*3 11.8 C 1.6 km/h
530 20-10-2020 20:10:00 11.8 C 9.89 g/m*3 11.8 C 4.8 km/h
531 20-10-2020 20:15:00 11.8 C 9.89 g/m*3 11.8 C 1.6 km/h
532 20-10-2020 20:20:00 11.9 C 9.96 g/m*3 11.9 C 1.6 km/h
533 20-10-2020 20:25:00 11.9 C 9.96 g/m*3 11.9 C 0 km/h
534 20-10-2020 20:30:00 12 C 10.02 g/m*3 12 C 3.2 km/h
535 20-10-2020 20:35:00 12 C 10.02 g/m*3 12 C 0 km/h
536 20-10-2020 20:40:00 12 C 9.91 g/m*3 12 C 3.2 km/h
537 20-10-2020 20:45:00 12 C 9.91 g/m*3 12 C 1.6 km/h
538 20-10-2020 20:50:00 12 C 9.91 g/m*3 12 C 1.6 km/h
539 20-10-2020 20:55:00 11.9 C 9.85 g/m*3 11.9 C 3.2 km/h
540 20-10-2020 21:00:00 11.9 C 9.85 g/m*3 11.9 C 0 km/h
541 20-10-2020 21:05:00 11.9 C 9.85 g/m*3 11.9 C 1.6 km/h
542 20-10-2020 21:10:00 11.9 C 9.85 g/m*3 11.9 C 3.2 km/h
543 20-10-2020 21:15:00 11.8 C 9.79 g/m*3 11.8 C 1.6 km/h
544 20-10-2020 21:20:00 11.8 C 9.79 g/m*3 11.8 C 0 km/h
545 20-10-2020 21:25:00 11.8 C 9.79 g/m*3 11.8 C 0 km/h
546 20-10-2020 21:30:00 11.7 C 9.62 g/m*3 11.7 C 0 km/h
547 20-10-2020 21:35:00 11.7 C 9.62 g/m*3 11.7 C 1.6 km/h
548 20-10-2020 21:40:00 11.7 C 9.73 g/m*3 11.7 C 1.6 km/h
549 20-10-2020 21:45:00 11.7 C 9.73 g/m*3 11.7 C 3.2 km/h
550 20-10-2020 21:50:00 11.7 C 9.62 g/m*3 11.7 C 0 km/h
Sensor: Nr:Datum:Temp:Abs-Feuchte:Windchill:Wind:
Aussen-T/F 551 20-10-2020 21:55:00 11.6 C 9.67 g/m*3 11.6 C 3.2 km/h
552 20-10-2020 22:00:00 11.6 C 9.67 g/m*3 11.6 C 1.6 km/h
553 20-10-2020 22:05:00 11.6 C 9.67 g/m*3 11.6 C 0 km/h
554 20-10-2020 22:10:00 11.6 C 9.67 g/m*3 11.6 C 1.6 km/h
555 20-10-2020 22:15:00 11.6 C 9.67 g/m*3 11.6 C 0 km/h
556 20-10-2020 22:20:00 11.6 C 9.67 g/m*3 11.6 C 3.2 km/h
557 20-10-2020 22:25:00 11.6 C 9.67 g/m*3 11.6 C 3.2 km/h
558 20-10-2020 22:30:00 11.5 C 9.61 g/m*3 11.5 C 3.2 km/h
559 20-10-2020 22:35:00 11.6 C 9.67 g/m*3 11.6 C 4.8 km/h
560 20-10-2020 22:40:00 11.6 C 9.67 g/m*3 11.6 C 1.6 km/h
561 20-10-2020 22:45:00 11.6 C 9.67 g/m*3 11.6 C 1.6 km/h
562 20-10-2020 22:50:00 11.6 C 9.67 g/m*3 11.6 C 1.6 km/h
563 20-10-2020 22:55:00 11.7 C 9.73 g/m*3 11.7 C 0 km/h
564 20-10-2020 23:00:00 11.7 C 9.73 g/m*3 11.7 C 0 km/h
565 20-10-2020 23:05:00 11.7 C 9.73 g/m*3 11.7 C 1.6 km/h
566 20-10-2020 23:10:00 11.7 C 9.73 g/m*3 11.7 C 0 km/h
567 20-10-2020 23:15:00 11.8 C 9.79 g/m*3 11.8 C 1.6 km/h
568 20-10-2020 23:20:00 11.8 C 9.79 g/m*3 11.8 C 1.6 km/h
569 20-10-2020 23:25:00 11.8 C 9.79 g/m*3 11.8 C 3.2 km/h
570 20-10-2020 23:30:00 11.8 C 9.79 g/m*3 11.8 C 1.6 km/h
571 20-10-2020 23:35:00 11.8 C 9.79 g/m*3 11.8 C 0 km/h
572 20-10-2020 23:40:00 11.8 C 9.79 g/m*3 11.8 C 0 km/h
573 20-10-2020 23:45:00 11.8 C 9.79 g/m*3 11.8 C 0 km/h
574 20-10-2020 23:50:00 11.8 C 9.79 g/m*3 11.8 C 0 km/h
575 20-10-2020 23:55:00 11.9 C 9.85 g/m*3 11.9 C 0 km/h
Sensor: Nr:Datum:Temp:Abs-Feuchte:Windchill:Wind:
Aussen-T/F 576 21-10-2020 00:00:00 11.9 C 9.85 g/m*3 11.9 C 0 km/h
577 21-10-2020 00:05:00 11.9 C 9.85 g/m*3 11.9 C 0 km/h
578 21-10-2020 00:10:00 11.9 C 9.85 g/m*3 11.9 C 0 km/h
579 21-10-2020 00:15:00 11.9 C 9.85 g/m*3 11.9 C 0 km/h
580 21-10-2020 00:20:00 11.9 C 9.85 g/m*3 11.9 C 0 km/h
581 21-10-2020 00:25:00 11.8 C 9.79 g/m*3 11.8 C 0 km/h
582 21-10-2020 00:30:00 11.8 C 9.79 g/m*3 11.8 C 0 km/h
583 21-10-2020 00:35:00 11.8 C 9.79 g/m*3 11.8 C 0 km/h
584 21-10-2020 00:40:00 11.8 C 9.79 g/m*3 11.8 C 0 km/h
585 21-10-2020 00:45:00 11.8 C 9.89 g/m*3 11.8 C 0 km/h
586 21-10-2020 00:50:00 11.8 C 9.89 g/m*3 11.8 C 0 km/h
587 21-10-2020 00:55:00 11.8 C 9.89 g/m*3 11.8 C 0 km/h
588 21-10-2020 01:00:00 11.8 C 9.89 g/m*3 11.8 C 0 km/h
589 21-10-2020 01:05:00 11.8 C 9.89 g/m*3 11.8 C 0 km/h
590 21-10-2020 01:10:00 11.8 C 9.89 g/m*3 11.8 C 0 km/h
591 21-10-2020 01:15:00 11.7 C 9.83 g/m*3 11.7 C 0 km/h
592 21-10-2020 01:20:00 11.7 C 9.83 g/m*3 11.7 C 0 km/h
593 21-10-2020 01:25:00 11.7 C 9.83 g/m*3 11.7 C 0 km/h
594 21-10-2020 01:30:00 11.7 C 9.83 g/m*3 11.7 C 0 km/h
595 21-10-2020 01:35:00 11.7 C 9.94 g/m*3 11.7 C 0 km/h
596 21-10-2020 01:40:00 11.6 C 9.87 g/m*3 11.6 C 0 km/h
597 21-10-2020 01:45:00 11.6 C 9.87 g/m*3 11.6 C 0 km/h
598 21-10-2020 01:50:00 11.6 C 9.87 g/m*3 11.6 C 0 km/h
599 21-10-2020 01:55:00 11.6 C 9.87 g/m*3 11.6 C 0 km/h
600 21-10-2020 02:00:00 11.6 C 9.87 g/m*3 11.6 C 0 km/h
Sensor: Nr:Datum:Temp:Abs-Feuchte:Windchill:Wind:
Aussen-T/F 601 21-10-2020 02:05:00 11.5 C 9.81 g/m*3 11.5 C 0 km/h
602 21-10-2020 02:10:00 11.5 C 9.81 g/m*3 11.5 C 0 km/h
603 21-10-2020 02:15:00 11.4 C 9.75 g/m*3 11.4 C 0 km/h
604 21-10-2020 02:20:00 11.4 C 9.75 g/m*3 11.4 C 0 km/h
605 21-10-2020 02:25:00 11.4 C 9.75 g/m*3 11.4 C 0 km/h
606 21-10-2020 02:30:00 11.4 C 9.75 g/m*3 11.4 C 4.8 km/h
607 21-10-2020 02:35:00 11.4 C 9.75 g/m*3 11.4 C 3.2 km/h
608 21-10-2020 02:40:00 11.4 C 9.75 g/m*3 11.4 C 4.8 km/h
609 21-10-2020 02:45:00 11.3 C 9.69 g/m*3 11.3 C 3.2 km/h
610 21-10-2020 02:50:00 11.3 C 9.69 g/m*3 11.3 C 4.8 km/h
611 21-10-2020 02:55:00 11.3 C 9.69 g/m*3 11.3 C 0 km/h
612 21-10-2020 03:00:00 11.3 C 9.69 g/m*3 11.3 C 3.2 km/h
613 21-10-2020 03:05:00 11.3 C 9.69 g/m*3 11.3 C 4.8 km/h
614 21-10-2020 03:10:00 11.3 C 9.69 g/m*3 11.3 C 4.8 km/h
615 21-10-2020 03:15:00 11.3 C 9.69 g/m*3 11.3 C 6.4 km/h
616 21-10-2020 03:20:00 11.3 C 9.69 g/m*3 11.3 C 4.8 km/h
617 21-10-2020 03:25:00 11.3 C 9.69 g/m*3 11.3 C 1.6 km/h
618 21-10-2020 03:30:00 11.3 C 9.69 g/m*3 11.3 C 4.8 km/h
619 21-10-2020 03:35:00 11.3 C 9.69 g/m*3 11.3 C 0 km/h
620 21-10-2020 03:40:00 11.3 C 9.69 g/m*3 11.3 C 0 km/h
621 21-10-2020 03:45:00 11.3 C 9.69 g/m*3 11.3 C 0 km/h
622 21-10-2020 03:50:00 11.3 C 9.69 g/m*3 11.3 C 0 km/h
623 21-10-2020 03:55:00 11.3 C 9.69 g/m*3 11.3 C 0 km/h
624 21-10-2020 04:00:00 11.3 C 9.69 g/m*3 11.3 C 0 km/h
625 21-10-2020 04:05:00 11.3 C 9.69 g/m*3 11.3 C 1.6 km/h
Sensor: Nr:Datum:Temp:Abs-Feuchte:Windchill:Wind:
Aussen-T/F 626 21-10-2020 04:10:00 11.3 C 9.69 g/m*3 11.3 C 3.2 km/h
627 21-10-2020 04:15:00 11.3 C 9.69 g/m*3 11.3 C 0 km/h
628 21-10-2020 04:20:00 11.3 C 9.69 g/m*3 11.3 C 3.2 km/h
629 21-10-2020 04:25:00 11.3 C 9.69 g/m*3 11.3 C 4.8 km/h
630 21-10-2020 04:30:00 11.3 C 9.69 g/m*3 11.3 C 4.8 km/h
631 21-10-2020 04:35:00 11.4 C 9.75 g/m*3 11.4 C 3.2 km/h
632 21-10-2020 04:40:00 11.4 C 9.75 g/m*3 11.4 C 3.2 km/h
633 21-10-2020 04:45:00 11.4 C 9.75 g/m*3 11.4 C 3.2 km/h
634 21-10-2020 04:50:00 11.5 C 9.81 g/m*3 11.5 C 3.2 km/h
635 21-10-2020 04:55:00 11.6 C 9.77 g/m*3 11.6 C 1.6 km/h
636 21-10-2020 05:00:00 11.6 C 9.77 g/m*3 11.6 C 3.2 km/h
637 21-10-2020 05:05:00 11.6 C 9.77 g/m*3 11.6 C 1.6 km/h
638 21-10-2020 05:10:00 11.7 C 9.83 g/m*3 11.7 C 3.2 km/h
639 21-10-2020 05:15:00 11.7 C 9.83 g/m*3 11.7 C 3.2 km/h
640 21-10-2020 05:20:00 11.7 C 9.73 g/m*3 11.7 C 1.6 km/h
641 21-10-2020 05:25:00 11.8 C 9.79 g/m*3 11.8 C 3.2 km/h
642 21-10-2020 05:30:00 11.8 C 9.79 g/m*3 11.8 C 4.8 km/h
643 21-10-2020 05:35:00 11.8 C 9.79 g/m*3 11.8 C 0 km/h
644 21-10-2020 05:40:00 11.8 C 9.68 g/m*3 11.8 C 4.8 km/h
645 21-10-2020 05:45:00 11.9 C 9.74 g/m*3 11.9 C 3.2 km/h
646 21-10-2020 05:50:00 12 C 9.8 g/m*3 12 C 1.6 km/h
647 21-10-2020 05:55:00 12.1 C 9.97 g/m*3 12.1 C 4.8 km/h
648 21-10-2020 06:00:00 12.1 C 9.97 g/m*3 12.1 C 4.8 km/h
649 21-10-2020 06:05:00 12.1 C 9.97 g/m*3 12.1 C 4.8 km/h
650 21-10-2020 06:10:00 12 C 9.91 g/m*3 12 C 4.8 km/h
Sensor: Nr:Datum:Temp:Abs-Feuchte:Windchill:Wind:
Aussen-T/F 651 21-10-2020 06:15:00 11.9 C 9.85 g/m*3 11.9 C 6.4 km/h
652 21-10-2020 06:20:00 11.9 C 9.85 g/m*3 11.9 C 1.6 km/h
653 21-10-2020 06:25:00 11.9 C 9.85 g/m*3 11.9 C 3.2 km/h
654 21-10-2020 06:30:00 11.9 C 9.85 g/m*3 11.9 C 3.2 km/h
655 21-10-2020 06:35:00 11.9 C 9.85 g/m*3 11.9 C 1.6 km/h
656 21-10-2020 06:40:00 11.9 C 9.74 g/m*3 11.9 C 6.4 km/h
657 21-10-2020 06:45:00 11.9 C 9.74 g/m*3 11.9 C 1.6 km/h
658 21-10-2020 06:50:00 12 C 9.8 g/m*3 12 C 3.2 km/h
659 21-10-2020 06:55:00 12 C 9.8 g/m*3 12 C 1.6 km/h
660 21-10-2020 07:00:00 12.1 C 9.87 g/m*3 12.1 C 1.6 km/h
661 21-10-2020 07:05:00 12.1 C 9.87 g/m*3 12.1 C 0 km/h
662 21-10-2020 07:10:00 12.1 C 9.87 g/m*3 12.1 C 3.2 km/h
663 21-10-2020 07:15:00 12.1 C 9.87 g/m*3 12.1 C 0 km/h
664 21-10-2020 07:20:00 12.1 C 9.87 g/m*3 12.1 C 1.6 km/h
665 21-10-2020 07:25:00 12.1 C 9.87 g/m*3 12.1 C 3.2 km/h
666 21-10-2020 07:30:00 12.1 C 9.87 g/m*3 12.1 C 3.2 km/h
667 21-10-2020 07:35:00 12.1 C 9.87 g/m*3 12.1 C 3.2 km/h
668 21-10-2020 07:40:00 12.1 C 9.87 g/m*3 12.1 C 3.2 km/h
669 21-10-2020 07:45:00 12.1 C 9.87 g/m*3 12.1 C 1.6 km/h
670 21-10-2020 07:50:00 12.1 C 9.87 g/m*3 12.1 C 3.2 km/h
671 21-10-2020 07:55:00 12.2 C 10.04 g/m*3 12.2 C 0 km/h
672 21-10-2020 08:00:00 12.2 C 10.04 g/m*3 12.2 C 3.2 km/h
673 21-10-2020 08:05:00 12.2 C 10.04 g/m*3 12.2 C 3.2 km/h
674 21-10-2020 08:10:00 12.1 C 9.97 g/m*3 12.1 C 0 km/h
675 21-10-2020 08:15:00 12.1 C 9.97 g/m*3 12.1 C 1.6 km/h
Sensor: Nr:Datum:Temp:Abs-Feuchte:Windchill:Wind:
Aussen-T/F 676 21-10-2020 08:20:00 12.1 C 10.08 g/m*3 12.1 C 3.2 km/h
677 21-10-2020 08:25:00 12.1 C 10.08 g/m*3 12.1 C 3.2 km/h
678 21-10-2020 08:30:00 12.1 C 10.08 g/m*3 12.1 C 4.8 km/h
679 21-10-2020 08:35:00 12.1 C 10.08 g/m*3 12.1 C 3.2 km/h
680 21-10-2020 08:40:00 12.1 C 10.08 g/m*3 12.1 C 0 km/h
681 21-10-2020 08:45:00 12.1 C 10.08 g/m*3 12.1 C 0 km/h
682 21-10-2020 08:50:00 12.1 C 10.08 g/m*3 12.1 C 0 km/h
683 21-10-2020 08:55:00 12.1 C 10.08 g/m*3 12.1 C 0 km/h
684 21-10-2020 09:00:00 12.1 C 10.08 g/m*3 12.1 C 0 km/h
685 21-10-2020 09:05:00 12.1 C 10.08 g/m*3 12.1 C 0 km/h
686 21-10-2020 09:10:00 12.1 C 10.08 g/m*3 12.1 C 0 km/h
687 21-10-2020 09:15:00 12.1 C 10.08 g/m*3 12.1 C 0 km/h
688 21-10-2020 09:20:00 12.1 C 10.19 g/m*3 12.1 C 0 km/h
689 21-10-2020 09:25:00 12 C 10.02 g/m*3 12 C 0 km/h
690 21-10-2020 09:30:00 12.1 C 10.08 g/m*3 12.1 C 0 km/h
691 21-10-2020 09:35:00 12.1 C 10.19 g/m*3 12.1 C 0 km/h
692 21-10-2020 09:40:00 12.1 C 10.19 g/m*3 12.1 C 0 km/h
693 21-10-2020 09:45:00 12.2 C 10.25 g/m*3 12.2 C 0 km/h
694 21-10-2020 09:50:00 12.2 C 10.25 g/m*3 12.2 C 0 km/h
695 21-10-2020 09:55:00 12.3 C 10.32 g/m*3 12.3 C 0 km/h
696 21-10-2020 10:00:00 12.3 C 10.32 g/m*3 12.3 C 0 km/h
697 21-10-2020 10:05:00 12.4 C 10.38 g/m*3 12.4 C 0 km/h
698 21-10-2020 10:10:00 12.4 C 10.38 g/m*3 12.4 C 0 km/h
699 21-10-2020 10:15:00 12.4 C 10.38 g/m*3 12.4 C 0 km/h
700 21-10-2020 10:20:00 12.5 C 10.44 g/m*3 12.5 C 0 km/h
Sensor: Nr:Datum:Temp:Abs-Feuchte:Windchill:Wind:
Aussen-T/F 701 21-10-2020 10:25:00 12.6 C 10.51 g/m*3 12.6 C 0 km/h
702 21-10-2020 10:30:00 12.6 C 10.4 g/m*3 12.6 C 0 km/h
703 21-10-2020 10:35:00 12.7 C 10.46 g/m*3 12.7 C 0 km/h
704 21-10-2020 10:40:00 12.7 C 10.46 g/m*3 12.7 C 0 km/h
705 21-10-2020 10:45:00 12.8 C 10.53 g/m*3 12.8 C 0 km/h
706 21-10-2020 10:50:00 12.8 C 10.53 g/m*3 12.8 C 0 km/h
707 21-10-2020 10:55:00 12.9 C 10.59 g/m*3 12.9 C 0 km/h
708 21-10-2020 11:00:00 13.1 C 10.61 g/m*3 13.1 C 0 km/h
709 21-10-2020 11:05:00 13.2 C 10.68 g/m*3 13.2 C 0 km/h
710 21-10-2020 11:10:00 13.4 C 10.81 g/m*3 13.4 C 0 km/h
711 21-10-2020 11:15:00 13.5 C 10.64 g/m*3 13.5 C 0 km/h
712 21-10-2020 11:20:00 13.7 C 10.78 g/m*3 13.7 C 0 km/h
713 21-10-2020 11:25:00 13.9 C 10.79 g/m*3 13.9 C 0 km/h
714 21-10-2020 11:30:00 14.1 C 10.68 g/m*3 14.1 C 6.4 km/h
715 21-10-2020 11:35:00 14.3 C 10.32 g/m*3 14.3 C 1.6 km/h
716 21-10-2020 11:40:00 14.7 C 10.58 g/m*3 14.7 C 0 km/h
717 21-10-2020 11:45:00 15.1 C 10.58 g/m*3 15.1 C 1.6 km/h
718 21-10-2020 11:50:00 15.3 C 10.45 g/m*3 15.3 C 1.6 km/h
719 21-10-2020 11:55:00 15.6 C 11.04 g/m*3 15.6 C 0 km/h
720 21-10-2020 12:00:00 15.8 C 10.77 g/m*3 15.8 C 1.6 km/h
721 21-10-2020 12:05:00 16.1 C 11.24 g/m*3 16.1 C 0 km/h
722 21-10-2020 12:10:00 16.3 C 11.65 g/m*3 16.3 C 0 km/h
723 21-10-2020 12:15:00 16.4 C 11.17 g/m*3 16.4 C 0 km/h
724 21-10-2020 12:20:00 16.6 C 10.59 g/m*3 16.6 C 9.7 km/h
725 21-10-2020 12:25:00 16.7 C 10.66 g/m*3 16.7 C 9.7 km/h
Sensor: Nr:Datum:Temp:Abs-Feuchte:Windchill:Wind:
Aussen-T/F 726 21-10-2020 12:30:00 16.8 C 9.87 g/m*3 16.8 C 4.8 km/h
727 21-10-2020 12:35:00 17.1 C 10.04 g/m*3 17.1 C 0 km/h
728 21-10-2020 12:40:00 17.3 C 10.02 g/m*3 17.3 C 0 km/h
729 21-10-2020 12:45:00 17.6 C 11.25 g/m*3 17.6 C 3.2 km/h
730 21-10-2020 12:50:00 17.7 C 10.11 g/m*3 17.7 C 1.6 km/h
731 21-10-2020 12:55:00 17.9 C 9.92 g/m*3 17.9 C 3.2 km/h
732 21-10-2020 13:00:00 18.2 C 10.26 g/m*3 18.2 C 4.8 km/h
733 21-10-2020 13:05:00 18.4 C 11.01 g/m*3 18.4 C 4.8 km/h
734 21-10-2020 13:10:00 18.6 C 9.55 g/m*3 18.6 C 4.8 km/h
735 21-10-2020 13:15:00 18.8 C 9.34 g/m*3 18.8 C 0 km/h
736 21-10-2020 13:20:00 18.9 C 9.23 g/m*3 18.9 C 4.8 km/h
737 21-10-2020 13:25:00 19.1 C 10.33 g/m*3 19.1 C 1.6 km/h
738 21-10-2020 13:30:00 19.1 C 9.67 g/m*3 19.1 C 4.8 km/h
739 21-10-2020 13:35:00 19.1 C 10.33 g/m*3 19.1 C 6.4 km/h
740 21-10-2020 13:40:00 19.1 C 9.34 g/m*3 19.1 C 4.8 km/h
741 21-10-2020 13:45:00 19.3 C 9.45 g/m*3 19.3 C 11.3 km/h
742 21-10-2020 13:50:00 19.3 C 9.29 g/m*3 19.3 C 4.8 km/h
743 21-10-2020 13:55:00 19.4 C 9.51 g/m*3 19.4 C 8.1 km/h
744 21-10-2020 14:00:00 19.5 C 10.74 g/m*3 19.5 C 0 km/h
745 21-10-2020 14:05:00 19.4 C 11.18 g/m*3 19.4 C 0 km/h
746 21-10-2020 14:10:00 19.4 C 10.84 g/m*3 19.4 C 3.2 km/h
747 21-10-2020 14:15:00 19.4 C 11.18 g/m*3 19.4 C 1.6 km/h
748 21-10-2020 14:20:00 19.4 C 10.51 g/m*3 19.4 C 1.6 km/h
749 21-10-2020 14:25:00 19.6 C 10.64 g/m*3 19.6 C 4.8 km/h
750 21-10-2020 14:30:00 19.7 C 10.87 g/m*3 19.7 C 6.4 km/h
Sensor: Nr:Datum:Temp:Abs-Feuchte:Windchill:Wind:
Aussen-T/F 751 21-10-2020 14:35:00 19.9 C 9.97 g/m*3 19.9 C 12.9 km/h
752 21-10-2020 14:40:00 20.2 C 11.02 g/m*3 20.2 C 1.6 km/h
753 21-10-2020 14:45:00 20.4 C 10.61 g/m*3 20.4 C 3.2 km/h
754 21-10-2020 14:50:00 20.6 C 10.38 g/m*3 20.6 C 14.5 km/h
755 21-10-2020 14:55:00 20.8 C 10.32 g/m*3 20.8 C 14.5 km/h
756 21-10-2020 15:00:00 21 C 10.26 g/m*3 21 C 9.7 km/h
757 21-10-2020 15:05:00 21.1 C 10.13 g/m*3 21.1 C 14.5 km/h
758 21-10-2020 15:10:00 21.1 C 10.5 g/m*3 21.1 C 4.8 km/h
759 21-10-2020 15:15:00 21 C 10.26 g/m*3 21 C 14.5 km/h
760 21-10-2020 15:20:00 21 C 10.26 g/m*3 21 C 6.4 km/h
761 21-10-2020 15:25:00 21.1 C 10.13 g/m*3 21.1 C 3.2 km/h
762 21-10-2020 15:30:00 21.2 C 10.38 g/m*3 21.2 C 17.7 km/h
763 21-10-2020 15:35:00 21.2 C 10.38 g/m*3 21.2 C 6.4 km/h
764 21-10-2020 15:40:00 21.2 C 10.56 g/m*3 21.2 C 12.9 km/h
765 21-10-2020 15:45:00 21.1 C 10.5 g/m*3 21.1 C 9.7 km/h
766 21-10-2020 15:50:00 21.1 C 10.13 g/m*3 21.1 C 17.7 km/h
767 21-10-2020 15:55:00 21.1 C 10.32 g/m*3 21.1 C 16.1 km/h
768 21-10-2020 16:00:00 21.2 C 10.01 g/m*3 21.2 C 12.9 km/h
769 21-10-2020 16:05:00 21.2 C 10.19 g/m*3 21.2 C 9.7 km/h
770 21-10-2020 16:10:00 21.1 C 10.13 g/m*3 21.1 C 8.1 km/h
771 21-10-2020 16:15:00 21.1 C 10.32 g/m*3 21.1 C 14.5 km/h
772 21-10-2020 16:20:00 21.1 C 10.5 g/m*3 21.1 C 6.4 km/h
773 21-10-2020 16:25:00 21 C 10.44 g/m*3 21 C 12.9 km/h
774 21-10-2020 16:30:00 20.9 C 10.38 g/m*3 20.9 C 6.4 km/h
775 21-10-2020 16:35:00 20.9 C 10.56 g/m*3 20.9 C 8.1 km/h
Sensor: Nr:Datum:Temp:Abs-Feuchte:Windchill:Wind:
Aussen-T/F 776 21-10-2020 16:40:00 20.9 C 10.2 g/m*3 20.9 C 11.3 km/h
777 21-10-2020 16:45:00 20.9 C 10.75 g/m*3 20.9 C 8.1 km/h
778 21-10-2020 16:50:00 20.8 C 10.5 g/m*3 20.8 C 9.7 km/h
779 21-10-2020 16:55:00 20.8 C 10.86 g/m*3 20.8 C 6.4 km/h
780 21-10-2020 17:00:00 20.7 C 10.8 g/m*3 20.7 C 6.4 km/h
781 21-10-2020 17:05:00 20.7 C 10.98 g/m*3 20.7 C 8.1 km/h
782 21-10-2020 17:10:00 20.7 C 10.98 g/m*3 20.7 C 4.8 km/h
783 21-10-2020 17:15:00 20.6 C 10.92 g/m*3 20.6 C 3.2 km/h
784 21-10-2020 17:20:00 20.4 C 10.61 g/m*3 20.4 C 3.2 km/h
785 21-10-2020 17:25:00 20.3 C 11.08 g/m*3 20.3 C 6.4 km/h
786 21-10-2020 17:30:00 20.2 C 11.37 g/m*3 20.2 C 6.4 km/h
787 21-10-2020 17:35:00 20 C 11.06 g/m*3 20 C 3.2 km/h
788 21-10-2020 17:40:00 19.8 C 10.59 g/m*3 19.8 C 8.1 km/h
789 21-10-2020 17:45:00 19.8 C 11.1 g/m*3 19.8 C 3.2 km/h
790 21-10-2020 17:50:00 19.6 C 10.97 g/m*3 19.6 C 4.8 km/h
791 21-10-2020 17:55:00 19.3 C 11.11 g/m*3 19.3 C 4.8 km/h
792 21-10-2020 18:00:00 19.1 C 11.47 g/m*3 19.1 C 4.8 km/h
793 21-10-2020 18:05:00 18.9 C 11.34 g/m*3 18.9 C 3.2 km/h
794 21-10-2020 18:10:00 18.6 C 10.98 g/m*3 18.6 C 9.7 km/h
795 21-10-2020 18:15:00 18.5 C 10.92 g/m*3 18.5 C 6.4 km/h
796 21-10-2020 18:20:00 18.4 C 11.17 g/m*3 18.4 C 4.8 km/h
797 21-10-2020 18:25:00 18.3 C 11.1 g/m*3 18.3 C 4.8 km/h
798 21-10-2020 18:30:00 18.1 C 11.12 g/m*3 18.1 C 1.6 km/h
799 21-10-2020 18:35:00 17.9 C 10.99 g/m*3 17.9 C 0 km/h
800 21-10-2020 18:40:00 17.9 C 11.3 g/m*3 17.9 C 8.1 km/h
Sensor: Nr:Datum:Temp:Abs-Feuchte:Windchill:Wind:
Aussen-T/F 801 21-10-2020 18:45:00 17.8 C 10.93 g/m*3 17.8 C 6.4 km/h
802 21-10-2020 18:50:00 17.7 C 11.01 g/m*3 17.7 C 0 km/h
803 21-10-2020 18:55:00 17.4 C 10.82 g/m*3 17.4 C 0 km/h
804 21-10-2020 19:00:00 17.2 C 10.84 g/m*3 17.2 C 4.8 km/h
805 21-10-2020 19:05:00 17 C 10.85 g/m*3 17 C 6.4 km/h
806 21-10-2020 19:10:00 16.8 C 10.87 g/m*3 16.8 C 8.1 km/h
807 21-10-2020 19:15:00 16.7 C 10.8 g/m*3 16.7 C 4.8 km/h
808 21-10-2020 19:20:00 16.5 C 10.67 g/m*3 16.5 C 4.8 km/h
809 21-10-2020 19:25:00 16.5 C 10.95 g/m*3 16.5 C 1.6 km/h
810 21-10-2020 19:30:00 16.4 C 10.75 g/m*3 16.4 C 0 km/h
811 21-10-2020 19:35:00 16.6 C 10.88 g/m*3 16.6 C 4.8 km/h
812 21-10-2020 19:40:00 16.7 C 10.94 g/m*3 16.7 C 1.6 km/h
813 21-10-2020 19:45:00 16.8 C 11.01 g/m*3 16.8 C 4.8 km/h
814 21-10-2020 19:50:00 16.8 C 10.87 g/m*3 16.8 C 11.3 km/h
815 21-10-2020 19:55:00 17 C 11.14 g/m*3 17 C 6.4 km/h
816 21-10-2020 20:00:00 17 C 11.29 g/m*3 17 C 4.8 km/h
817 21-10-2020 20:05:00 16.9 C 11.36 g/m*3 16.9 C 4.8 km/h
818 21-10-2020 20:10:00 16.8 C 11.29 g/m*3 16.8 C 4.8 km/h
819 21-10-2020 20:15:00 16.8 C 11.15 g/m*3 16.8 C 14.5 km/h
820 21-10-2020 20:20:00 17.3 C 11.05 g/m*3 17.3 C 11.3 km/h
821 21-10-2020 20:25:00 17.6 C 11.1 g/m*3 17.6 C 11.3 km/h
822 21-10-2020 20:30:00 17.7 C 11.32 g/m*3 17.7 C 3.2 km/h
823 21-10-2020 20:35:00 17.7 C 11.47 g/m*3 17.7 C 6.4 km/h
824 21-10-2020 20:40:00 17.5 C 11.33 g/m*3 17.5 C 4.8 km/h
825 21-10-2020 20:45:00 17.3 C 11.49 g/m*3 17.3 C 0 km/h
Sensor: Nr:Datum:Temp:Abs-Feuchte:Windchill:Wind:
Aussen-T/F 826 21-10-2020 20:50:00 17.2 C 11.42 g/m*3 17.2 C 0 km/h
827 21-10-2020 20:55:00 17 C 11.43 g/m*3 17 C 4.8 km/h
828 21-10-2020 21:00:00 16.8 C 11.44 g/m*3 16.8 C 4.8 km/h
829 21-10-2020 21:05:00 16.7 C 11.37 g/m*3 16.7 C 4.8 km/h
830 21-10-2020 21:10:00 16.4 C 11.31 g/m*3 16.4 C 4.8 km/h
831 21-10-2020 21:15:00 16.3 C 11.24 g/m*3 16.3 C 4.8 km/h
832 21-10-2020 21:20:00 16.2 C 11.31 g/m*3 16.2 C 1.6 km/h
833 21-10-2020 21:25:00 16.1 C 11.24 g/m*3 16.1 C 3.2 km/h
834 21-10-2020 21:30:00 15.9 C 11.24 g/m*3 15.9 C 4.8 km/h
835 21-10-2020 21:35:00 15.8 C 11.17 g/m*3 15.8 C 1.6 km/h
836 21-10-2020 21:40:00 15.8 C 11.31 g/m*3 15.8 C 3.2 km/h
837 21-10-2020 21:45:00 15.7 C 11.37 g/m*3 15.7 C 1.6 km/h
838 21-10-2020 21:50:00 15.7 C 11.51 g/m*3 15.7 C 4.8 km/h
839 21-10-2020 21:55:00 15.6 C 11.44 g/m*3 15.6 C 3.2 km/h
840 21-10-2020 22:00:00 15.6 C 11.44 g/m*3 15.6 C 3.2 km/h
841 21-10-2020 22:05:00 15.6 C 11.57 g/m*3 15.6 C 4.8 km/h
842 21-10-2020 22:10:00 15.5 C 11.5 g/m*3 15.5 C 4.8 km/h
843 21-10-2020 22:15:00 15.6 C 11.57 g/m*3 15.6 C 4.8 km/h
844 21-10-2020 22:20:00 15.6 C 11.57 g/m*3 15.6 C 0 km/h
845 21-10-2020 22:25:00 15.6 C 11.57 g/m*3 15.6 C 3.2 km/h
846 21-10-2020 22:30:00 15.6 C 11.57 g/m*3 15.6 C 4.8 km/h
847 21-10-2020 22:35:00 15.7 C 11.64 g/m*3 15.7 C 4.8 km/h
848 21-10-2020 22:40:00 15.7 C 11.64 g/m*3 15.7 C 3.2 km/h
849 21-10-2020 22:45:00 15.7 C 11.64 g/m*3 15.7 C 4.8 km/h
850 21-10-2020 22:50:00 15.7 C 11.64 g/m*3 15.7 C 3.2 km/h
Sensor: Nr:Datum:Temp:Abs-Feuchte:Windchill:Wind:
Aussen-T/F 851 21-10-2020 22:55:00 15.7 C 11.64 g/m*3 15.7 C 3.2 km/h
852 21-10-2020 23:00:00 15.7 C 11.51 g/m*3 15.7 C 1.6 km/h
853 21-10-2020 23:05:00 15.7 C 11.51 g/m*3 15.7 C 4.8 km/h
854 21-10-2020 23:10:00 15.7 C 11.51 g/m*3 15.7 C 0 km/h
855 21-10-2020 23:15:00 15.8 C 11.58 g/m*3 15.8 C 4.8 km/h
856 21-10-2020 23:20:00 15.8 C 11.58 g/m*3 15.8 C 4.8 km/h
857 21-10-2020 23:25:00 15.8 C 11.58 g/m*3 15.8 C 3.2 km/h
858 21-10-2020 23:30:00 15.8 C 11.58 g/m*3 15.8 C 4.8 km/h
859 21-10-2020 23:35:00 15.8 C 11.58 g/m*3 15.8 C 1.6 km/h
860 21-10-2020 23:40:00 15.8 C 11.58 g/m*3 15.8 C 3.2 km/h
861 21-10-2020 23:45:00 15.8 C 11.58 g/m*3 15.8 C 1.6 km/h
862 21-10-2020 23:50:00 15.8 C 11.58 g/m*3 15.8 C 1.6 km/h
863 21-10-2020 23:55:00 15.7 C 11.51 g/m*3 15.7 C 1.6 km/h

Legende:
   Min
   Max


Maximal/Minimal-Werte vom 19.10.2020 - 21.10.2020

Sensor Min Max Avg
Temp
(Aussen-T/F)
4.4 °C
20-10-2020  04:50:00
21.2 °C
21-10-2020  15:30:00
10.89 °C
Abs-Feuchte
(Aussen-T/F)
6.2 g/m*3
20-10-2020  04:50:00
11.65 g/m*3
21-10-2020  12:10:00
8.89 g/m*3
Windchill
(Aussen-T/F)
3.71 C
20-10-2020  01:35:00
21.2 C
21-10-2020  15:30:00
10.85 C

Die Daten stammen von einer Davis Vantage Pro 2 Wetter-Station und werden unter Linux mit der Software wview2wettercgi und aufbereitet. Alle Angaben erfolgen ohne Gewähr für ihre Vollständigkeit oder Richtigkeit.
Kontakt: Rainer Krienke krienke@uni-koblenz.de . Meine Webseiten an der Uni Koblenz oder privat.
Version: $Revision: 0.78 $